Report METAR

 

LIPQ - Ronchi Legionari, Italy
Distance from station: SSO 4km
Dati ricevuti: 06/07/2020 10:50
Sereno
Sereno
 Vento da NNO
Vento: NNO 11 km/h
Temperatura: 32°C
P.to Rugiada: 16°C
Umidità: 38%
Barometro: 1009 hPa
Nuvole: Sereno
Visibility: 10 km
2020/07/06 10:50 LIPQ 061050Z AUTO 33006KT 280V010 9999 NCD 32/16 Q1009
LIVT - Trieste, Italy
Distance from station: SE 27km
Dati ricevuti: 06/07/2020 10:55
Sereno
Sereno
 Vento da Variabile
Vento: Variabile 0 km/h
Temperatura: 30°C
Indice di Calore: 33°C
P.to Rugiada: 22°C
Umidità: 62%
Barometro: 1008 hPa
Summary: Sereno
Visibility: superiore a 10 km
2020/07/06 10:55 LIVT 061055Z /////KT CAVOK 30/22 Q1008 RMK FEW FEW083 QUK 0 QUL 0 VIS MAR 20 KM VIS MIN 9999
 
LIPI - Rivolto (it-Afb), Italy
Distance from station: ONO 37km
Dati ricevuti: 06/07/2020 10:55
Parz. nuvoloso
Parz. nuvoloso
 Vento da E
Vento: E 7 km/h
Temperatura: 32°C
P.to Rugiada: 16°C
Umidità: 38%
Barometro: 1010 hPa
Nuvole: Parz. nuvoloso
Visibility: 10 km
Cloud details: Few Clouds 1524 m
Parz. nuvoloso 3048 m
2020/07/06 10:55 LIPI 061055Z 10004KT 9999 FEW050 SCT100 32/16 Q1010 RMK SCT VIS MIN 9999 WIND THR06 VRB02KT WIND THR24 VRB03KT BLU
LJPZ - Portoroz, Slovenia
Distance from station: SSE 43km
Dati ricevuti: 06/07/2020 11:00
Sereno
Sereno
 Vento da ONO
Vento: ONO 11 km/h
Temperatura: 30°C
Indice di Calore: 31°C
P.to Rugiada: 17°C
Umidità: 46%
Barometro: 1009 hPa
Summary: Sereno
Visibility: superiore a 10 km
2020/07/06 11:00 LJPZ 061100Z 30006KT CAVOK 30/17 Q1009
 
LIPA - Aviano (it/Us-Af, Italy
Distance from station: ONO 73km
Dati ricevuti: 06/07/2020 10:55
Few Clouds
Few Clouds
 Vento da S
Vento: S 6 km/h
Temperatura: 30°C
Indice di Calore: 31°C
P.to Rugiada: 19°C
Umidità: 52%
Barometro: 1010 hPa
Nuvole: Few Clouds
Visibility: 10 km
Cloud details: Few Clouds 2134 m
2020/07/06 10:55 LIPA 061055Z 18003KT 9999 FEW070 30/19 Q1010 RMK SCT SCT160 VIS MIN 9999 WIND THR05 /////KT WIND THR23 /////KT A2983 BLU
LIVO - Tarvisio, Italy
Distance from station: N 73km
Dati ricevuti: 06/07/2020 10:55
Parz. nuvoloso
Parz. nuvoloso
 Vento da ESE
Vento: ESE 4 km/h
Temperatura: 26°C
P.to Rugiada: 19°C
Umidità: 65%
Barometro: 1013 hPa
Nuvole: Parz. nuvoloso
Visibility: 10 km
Cloud details: Parz. nuvoloso 1067 m
2020/07/06 10:55 LIVO 061055Z 12002KT 9999 SCT035 26/19 Q1013 RMK SCT VIS MIN 9999
 
LJLJ - Ljubljana/Brnik, Slovenia
Distance from station: ENE 86km
Dati ricevuti: 06/07/2020 11:00
Few Clouds
Few Clouds
 Vento da Variabile
Vento: Variabile 4 km/h
Temperatura: 28°C
Indice di Calore: 28°C
P.to Rugiada: 17°C
Umidità: 51%
Barometro: 1011 hPa
Nuvole: Few Clouds
Visibility: 10 km
Cloud details: Few Clouds 1676 m
2020/07/06 11:00 LJLJ 061100Z VRB02KT 9999 FEW055 28/17 Q1011 NOSIG
LIPZ - Venezia/Tessera, Italy
Distance from station: OSO 96km
Dati ricevuti: 06/07/2020 10:50
Sereno
Sereno
 Vento da SSE
Vento: SSE 9 km/h
Temperatura: 29°C
Indice di Calore: 30°C
P.to Rugiada: 19°C
Umidità: 55%
Barometro: 1010 hPa
Summary: Sereno
Visibility: superiore a 10 km
2020/07/06 10:50 LIPZ 061050Z 15005KT 120V180 CAVOK 29/19 Q1010 NOSIG
 
LIPH - Treviso(Civ/It-A, Italy
Distance from station: OSO 105km
Dati ricevuti: 06/07/2020 10:50
Sereno
Sereno
 Vento da Variabile
Vento: Variabile 6 km/h
Temperatura: 31°C
Indice di Calore: 32°C
P.to Rugiada: 18°C
Umidità: 46%
Barometro: 1010 hPa
Summary: Sereno
Visibility: superiore a 10 km
2020/07/06 10:50 LIPH 061050Z VRB03KT CAVOK 31/18 Q1010
LDRI - Rijeka/Omisalj, Croatia
Distance from station: SE 109km
Dati ricevuti: 06/07/2020 11:00
Few Clouds
Few Clouds
 Vento da NNO
Vento: NNO 11 km/h
Temperatura: 30°C
P.to Rugiada: 14°C
Umidità: 38%
Barometro: 1009 hPa
Nuvole: Few Clouds
Visibility: 10 km
Cloud details: Few Clouds 1524 m
2020/07/06 11:00 LDRI 061100Z 33006KT 250V360 9999 FEW050 30/14 Q1009
 
LOWK - Klagenfurt(Civ/M, Austria
Distance from station: NE 110km
Dati ricevuti: 06/07/2020 10:50
Few Clouds
Few Clouds
 Vento da ENE
Vento: ENE 7 km/h
Temperatura: 28°C
Indice di Calore: 28°C
P.to Rugiada: 15°C
Umidità: 45%
Barometro: 1012 hPa
Nuvole: Few Clouds
Visibility: 10 km
Cloud details: Few Clouds 1829 m
2020/07/06 10:50 LOWK 061050Z 06004KT 020V110 9999 FEW060 28/15 Q1012 NOSIG
LIPS - Istrana (it-Afb), Italy
Distance from station: O 111km
Dati ricevuti: 06/07/2020 10:55
Few Clouds
Few Clouds
 Vento da Variabile
Vento: Variabile 0 km/h
Temperatura: 31°C
Indice di Calore: 34°C
P.to Rugiada: 21°C
Umidità: 55%
Barometro: 1010 hPa
Nuvole: Few Clouds
Visibility: 10 km
Cloud details: Few Clouds 762 m
2020/07/06 10:55 LIPS 061055Z /////KT 9999 FEW025 31/21 Q1010 RMK FEW VIS MIN 9999 WIND THR26 19003KT WIND THR08 20003KT BLU
 
LDPL - Pula, Croatia
Distance from station: SSE 112km
Dati ricevuti: 06/07/2020 11:00
Sereno
Sereno
 Vento da E
Vento: E 22 km/h
Temperatura: 32°C
P.to Rugiada: 13°C
Umidità: 31%
Barometro: 1009 hPa
Summary: Sereno
Visibility: superiore a 10 km
2020/07/06 11:00 LDPL 061100Z 08012KT 040V110 CAVOK 32/13 Q1009 BECMG 11006KT
LIVD - Dobbiaco, Italy
Distance from station: NO 138km
Dati ricevuti: 06/07/2020 10:55
Parz. nuvoloso
Parz. nuvoloso
 Vento da Variabile
Vento: Variabile 0 km/h
Temperatura: 25°C
P.to Rugiada: 10°C
Umidità: 39%
Barometro: 1015 hPa
Nuvole: Parz. nuvoloso
Visibility: 10 km
Cloud details: Parz. nuvoloso 1219 m
2020/07/06 10:55 LIVD 061055Z /////KT 9999 SCT040 25/10 Q1015 RMK SCT VIS MIN 9999 BLU
 
LIPU - Padova (civ/It-A, Italy
Distance from station: OSO 139km
Dati ricevuti: 05/07/2020 06:00
DATI Obsoleti
Sereno
Sereno
 Vento da Variabile
Vento: Variabile 4 km/h
Temperatura: 22°C
P.to Rugiada: 17°C
Umidità: 73%
Barometro: 1017 hPa
Summary: Sereno
Visibility: superiore a 10 km
2020/07/05 06:00 LIPU 050600Z VRB02KT CAVOK 22/17 Q1017
LIVR - Rolle Pass, Italy
Distance from station: ONO 142km
Dati ricevuti: 06/07/2020 10:55
Parz. nuvoloso
Parz. nuvoloso
 Vento da SE
Vento: SE 26 km/h, Raffica: 44 km/h
Temperatura: 19°C
P.to Rugiada: 11°C
Umidità: 60%
Barometro: 1021 hPa
Nuvole: Parz. nuvoloso
Visibility: 10 km
Cloud details: Few Clouds 610 m
Parz. nuvoloso 914 m
2020/07/06 10:55 LIVR 061055Z 13014G24KT 9999 FEW020TCU SCT030 19/11 Q1021 RMK BKN MON CIME INC VIS MIN 9999
 
LJCE - Cerklje, Slovenia
Distance from station: E 157km
Dati ricevuti: 06/07/2020 11:00
Sereno
Sereno
 Vento da NE
Vento: NE 7 km/h
Temperatura: 29°C
Indice di Calore: 29°C
P.to Rugiada: 16°C
Umidità: 45%
Barometro: 1011 hPa
Summary: Sereno
Visibility: superiore a 10 km
2020/07/06 11:00 LJCE 061100Z 05004KT 340V140 CAVOK 29/16 Q1011 RMK BLU
LDLO - Losinj Island, Croatia
Distance from station: SSE 159km
Dati ricevuti: 05/07/2020 18:00
DATI Obsoleti
Sereno
Sereno
 Vento da NNO
Vento: NNO 17 km/h
Temperatura: 26°C
P.to Rugiada: 17°C
Umidità: 58%
Barometro: 1012 hPa
Summary: Sereno
Visibility: superiore a 10 km
2020/07/05 18:00 LDLO 051800Z 33009KT CAVOK 26/17 Q1012
 
LOXZ - Zeltweg (mil), Austria
Distance from station: NNE 179km
Dati ricevuti: 06/07/2020 10:50
Few Clouds
Few Clouds
 Vento da E
Vento: E 9 km/h
Temperatura: 27°C
Indice di Calore: 27°C
P.to Rugiada: 13°C
Umidità: 42%
Barometro: 1012 hPa
Nuvole: Few Clouds
Cloud details: Few Clouds 1829 m
2020/07/06 10:50 LOXZ 061050Z 10005KT 360V170 40KM FEW060CU 27/13 Q1012 NOSIG
LIPB - Bolzano(Civ/It-A, Italy
Distance from station: ONO 181km
Dati ricevuti: 06/07/2020 10:50
Few Clouds
Few Clouds
 Vento da S
Vento: S 7 km/h
Temperatura: 31°C
Indice di Calore: 32°C
P.to Rugiada: 17°C
Umidità: 43%
Barometro: 1009 hPa
Nuvole: Few Clouds
Visibility: 10 km
Cloud details: Few Clouds 2743 m
2020/07/06 10:50 LIPB 061050Z 17004KT 110V240 9999 FEW090 31/17 Q1009